sensor_id;sensor_type;location;lat;lon;timestamp;P1;durP1;ratioP1;P2;durP2;ratioP2
1262;SDS011;62267;50.112;8.704;2023-01-09T00:01:00;3.43;;;3.00;;
1262;SDS011;62267;50.112;8.704;2023-01-09T00:03:27;3.80;;;3.50;;
1262;SDS011;62267;50.112;8.704;2023-01-09T00:05:55;3.63;;;3.37;;
1262;SDS011;62267;50.112;8.704;2023-01-09T00:08:22;3.43;;;3.13;;
1262;SDS011;62267;50.112;8.704;2023-01-09T00:10:50;3.80;;;3.50;;
1262;SDS011;62267;50.112;8.704;2023-01-09T00:13:17;5.00;;;3.40;;
1262;SDS011;62267;50.112;8.704;2023-01-09T00:15:44;6.90;;;3.00;;
1262;SDS011;62267;50.112;8.704;2023-01-09T00:18:12;4.10;;;3.70;;
1262;SDS011;62267;50.112;8.704;2023-01-09T00:20:39;3.37;;;3.10;;
1262;SDS011;62267;50.112;8.704;2023-01-09T00:23:07;4.40;;;4.00;;
1262;SDS011;62267;50.112;8.704;2023-01-09T00:25:34;3.97;;;3.57;;
1262;SDS011;62267;50.112;8.704;2023-01-09T00:28:02;4.23;;;3.83;;
1262;SDS011;62267;50.112;8.704;2023-01-09T00:30:29;4.03;;;3.63;;
1262;SDS011;62267;50.112;8.704;2023-01-09T00:32:57;5.37;;;4.30;;
1262;SDS011;62267;50.112;8.704;2023-01-09T00:35:24;4.10;;;3.80;;
1262;SDS011;62267;50.112;8.704;2023-01-09T00:37:53;4.83;;;4.43;;
1262;SDS011;62267;50.112;8.704;2023-01-09T00:40:21;4.67;;;4.27;;
1262;SDS011;62267;50.112;8.704;2023-01-09T00:42:53;4.20;;;3.80;;
1262;SDS011;62267;50.112;8.704;2023-01-09T00:45:23;3.83;;;3.60;;
1262;SDS011;62267;50.112;8.704;2023-01-09T00:47:59;4.37;;;4.07;;
1262;SDS011;62267;50.112;8.704;2023-01-09T00:50:28;4.80;;;4.30;;
1262;SDS011;62267;50.112;8.704;2023-01-09T00:52:58;4.80;;;4.30;;
1262;SDS011;62267;50.112;8.704;2023-01-09T00:55:27;4.87;;;4.47;;
1262;SDS011;62267;50.112;8.704;2023-01-09T00:57:54;4.63;;;4.23;;
1262;SDS011;62267;50.112;8.704;2023-01-09T01:00:22;4.93;;;4.50;;
1262;SDS011;62267;50.112;8.704;2023-01-09T01:02:49;4.03;;;3.73;;
1262;SDS011;62267;50.112;8.704;2023-01-09T01:05:17;3.93;;;3.63;;
1262;SDS011;62267;50.112;8.704;2023-01-09T01:08:08;4.30;;;3.90;;
1262;SDS011;62267;50.112;8.704;2023-01-09T01:10:36;5.27;;;3.73;;
1262;SDS011;62267;50.112;8.704;2023-01-09T01:13:03;3.83;;;3.53;;
1262;SDS011;62267;50.112;8.704;2023-01-09T01:15:31;4.23;;;3.90;;
1262;SDS011;62267;50.112;8.704;2023-01-09T01:17:59;3.13;;;2.93;;
1262;SDS011;62267;50.112;8.704;2023-01-09T01:20:26;3.90;;;3.60;;
1262;SDS011;62267;50.112;8.704;2023-01-09T01:22:53;3.87;;;3.57;;
1262;SDS011;62267;50.112;8.704;2023-01-09T01:25:24;3.67;;;2.93;;
1262;SDS011;62267;50.112;8.704;2023-01-09T01:27:51;3.37;;;3.13;;
1262;SDS011;62267;50.112;8.704;2023-01-09T01:30:19;3.77;;;3.47;;
1262;SDS011;62267;50.112;8.704;2023-01-09T01:32:46;4.80;;;3.20;;
1262;SDS011;62267;50.112;8.704;2023-01-09T01:35:14;4.00;;;3.70;;
1262;SDS011;62267;50.112;8.704;2023-01-09T01:37:41;3.70;;;3.40;;
1262;SDS011;62267;50.112;8.704;2023-01-09T01:40:09;4.80;;;4.30;;
1262;SDS011;62267;50.112;8.704;2023-01-09T01:42:43;8.00;;;4.30;;
1262;SDS011;62267;50.112;8.704;2023-01-09T01:45:27;4.67;;;4.27;;
1262;SDS011;62267;50.112;8.704;2023-01-09T01:48:02;5.43;;;4.33;;
1262;SDS011;62267;50.112;8.704;2023-01-09T01:50:33;4.73;;;4.40;;
1262;SDS011;62267;50.112;8.704;2023-01-09T01:53:05;4.80;;;4.40;;
1262;SDS011;62267;50.112;8.704;2023-01-09T01:55:34;5.13;;;4.53;;
1262;SDS011;62267;50.112;8.704;2023-01-09T01:58:03;6.73;;;5.53;;
1262;SDS011;62267;50.112;8.704;2023-01-09T02:00:32;5.17;;;4.67;;
1262;SDS011;62267;50.112;8.704;2023-01-09T02:03:01;5.40;;;4.90;;
1262;SDS011;62267;50.112;8.704;2023-01-09T02:05:28;5.07;;;4.67;;
1262;SDS011;62267;50.112;8.704;2023-01-09T02:07:56;6.23;;;5.50;;
1262;SDS011;62267;50.112;8.704;2023-01-09T02:10:23;5.63;;;4.90;;
1262;SDS011;62267;50.112;8.704;2023-01-09T02:12:51;7.03;;;6.03;;
1262;SDS011;62267;50.112;8.704;2023-01-09T02:15:19;4.90;;;4.47;;
1262;SDS011;62267;50.112;8.704;2023-01-09T02:20:39;5.20;;;4.80;;
1262;SDS011;62267;50.112;8.704;2023-01-09T02:31:00;5.23;;;4.07;;
1262;SDS011;62267;50.112;8.704;2023-01-09T02:33:46;3.87;;;3.57;;
1262;SDS011;62267;50.112;8.704;2023-01-09T02:41:34;3.63;;;3.33;;
1262;SDS011;62267;50.112;8.704;2023-01-09T02:46:42;3.70;;;3.40;;
1262;SDS011;62267;50.112;8.704;2023-01-09T02:49:09;3.67;;;3.37;;
1262;SDS011;62267;50.112;8.704;2023-01-09T02:51:49;3.63;;;3.33;;
1262;SDS011;62267;50.112;8.704;2023-01-09T02:54:19;4.03;;;3.63;;
1262;SDS011;62267;50.112;8.704;2023-01-09T02:59:26;4.17;;;3.80;;
1262;SDS011;62267;50.112;8.704;2023-01-09T03:07:02;4.33;;;3.97;;
1262;SDS011;62267;50.112;8.704;2023-01-09T03:09:32;3.13;;;2.93;;
1262;SDS011;62267;50.112;8.704;2023-01-09T03:12:03;3.43;;;3.23;;
1262;SDS011;62267;50.112;8.704;2023-01-09T03:14:33;3.13;;;2.93;;
1262;SDS011;62267;50.112;8.704;2023-01-09T03:17:02;2.90;;;2.70;;
1262;SDS011;62267;50.112;8.704;2023-01-09T03:19:32;3.23;;;3.03;;
1262;SDS011;62267;50.112;8.704;2023-01-09T03:22:01;3.33;;;3.13;;
1262;SDS011;62267;50.112;8.704;2023-01-09T03:24:29;2.97;;;2.77;;
1262;SDS011;62267;50.112;8.704;2023-01-09T03:26:56;2.80;;;2.60;;
1262;SDS011;62267;50.112;8.704;2023-01-09T03:29:23;2.70;;;2.50;;
1262;SDS011;62267;50.112;8.704;2023-01-09T03:31:54;2.40;;;2.30;;
1262;SDS011;62267;50.112;8.704;2023-01-09T03:34:22;2.80;;;2.60;;
1262;SDS011;62267;50.112;8.704;2023-01-09T03:36:49;2.90;;;2.70;;
1262;SDS011;62267;50.112;8.704;2023-01-09T03:39:17;2.17;;;2.07;;
1262;SDS011;62267;50.112;8.704;2023-01-09T03:41:44;2.63;;;2.43;;
1262;SDS011;62267;50.112;8.704;2023-01-09T03:44:11;2.10;;;2.00;;
1262;SDS011;62267;50.112;8.704;2023-01-09T03:46:38;2.17;;;2.00;;
1262;SDS011;62267;50.112;8.704;2023-01-09T03:49:05;1.70;;;1.60;;
1262;SDS011;62267;50.112;8.704;2023-01-09T03:51:33;1.70;;;1.60;;
1262;SDS011;62267;50.112;8.704;2023-01-09T03:54:00;1.83;;;1.70;;
1262;SDS011;62267;50.112;8.704;2023-01-09T03:56:27;1.60;;;1.50;;
1262;SDS011;62267;50.112;8.704;2023-01-09T03:58:56;1.50;;;1.40;;
1262;SDS011;62267;50.112;8.704;2023-01-09T04:01:23;1.50;;;1.40;;
1262;SDS011;62267;50.112;8.704;2023-01-09T04:03:50;1.70;;;1.60;;
1262;SDS011;62267;50.112;8.704;2023-01-09T04:06:17;1.63;;;1.53;;
1262;SDS011;62267;50.112;8.704;2023-01-09T04:08:44;1.50;;;1.40;;
1262;SDS011;62267;50.112;8.704;2023-01-09T04:11:11;1.43;;;1.33;;
1262;SDS011;62267;50.112;8.704;2023-01-09T04:13:39;1.50;;;1.40;;
1262;SDS011;62267;50.112;8.704;2023-01-09T04:16:06;1.40;;;1.30;;
1262;SDS011;62267;50.112;8.704;2023-01-09T04:18:33;1.50;;;1.40;;
1262;SDS011;62267;50.112;8.704;2023-01-09T04:21:00;1.40;;;1.30;;
1262;SDS011;62267;50.112;8.704;2023-01-09T04:23:28;1.50;;;1.40;;
1262;SDS011;62267;50.112;8.704;2023-01-09T04:25:55;1.50;;;1.40;;
1262;SDS011;62267;50.112;8.704;2023-01-09T04:28:22;1.23;;;1.23;;
1262;SDS011;62267;50.112;8.704;2023-01-09T04:30:49;1.40;;;1.30;;
1262;SDS011;62267;50.112;8.704;2023-01-09T04:33:16;1.50;;;1.40;;
1262;SDS011;62267;50.112;8.704;2023-01-09T04:35:44;1.50;;;1.40;;
1262;SDS011;62267;50.112;8.704;2023-01-09T04:38:11;1.63;;;1.30;;
1262;SDS011;62267;50.112;8.704;2023-01-09T04:40:38;1.33;;;1.33;;
1262;SDS011;62267;50.112;8.704;2023-01-09T04:43:05;1.77;;;1.40;;
1262;SDS011;62267;50.112;8.704;2023-01-09T04:45:32;1.67;;;1.23;;
1262;SDS011;62267;50.112;8.704;2023-01-09T04:48:00;1.47;;;1.37;;
1262;SDS011;62267;50.112;8.704;2023-01-09T04:50:27;1.30;;;1.30;;
1262;SDS011;62267;50.112;8.704;2023-01-09T04:52:56;1.70;;;1.60;;
1262;SDS011;62267;50.112;8.704;2023-01-09T04:55:23;1.47;;;1.37;;
1262;SDS011;62267;50.112;8.704;2023-01-09T04:57:51;1.40;;;1.30;;
1262;SDS011;62267;50.112;8.704;2023-01-09T05:00:18;1.40;;;1.30;;
1262;SDS011;62267;50.112;8.704;2023-01-09T05:02:45;1.40;;;1.30;;
1262;SDS011;62267;50.112;8.704;2023-01-09T05:05:12;1.63;;;1.50;;
1262;SDS011;62267;50.112;8.704;2023-01-09T05:07:39;1.27;;;1.20;;
1262;SDS011;62267;50.112;8.704;2023-01-09T05:10:07;3.83;;;1.30;;
1262;SDS011;62267;50.112;8.704;2023-01-09T05:12:34;2.00;;;1.60;;
1262;SDS011;62267;50.112;8.704;2023-01-09T05:15:03;1.50;;;1.40;;
1262;SDS011;62267;50.112;8.704;2023-01-09T05:17:30;1.80;;;1.37;;
1262;SDS011;62267;50.112;8.704;2023-01-09T05:19:57;1.50;;;1.40;;
1262;SDS011;62267;50.112;8.704;2023-01-09T05:22:26;2.80;;;1.40;;
1262;SDS011;62267;50.112;8.704;2023-01-09T05:24:53;1.77;;;1.67;;
1262;SDS011;62267;50.112;8.704;2023-01-09T05:27:20;1.30;;;1.30;;
1262;SDS011;62267;50.112;8.704;2023-01-09T05:29:48;2.23;;;1.60;;
1262;SDS011;62267;50.112;8.704;2023-01-09T05:32:15;1.70;;;1.60;;
1262;SDS011;62267;50.112;8.704;2023-01-09T05:34:42;1.50;;;1.40;;
1262;SDS011;62267;50.112;8.704;2023-01-09T05:37:09;1.53;;;1.43;;
1262;SDS011;62267;50.112;8.704;2023-01-09T05:39:36;1.50;;;1.40;;
1262;SDS011;62267;50.112;8.704;2023-01-09T05:42:03;1.80;;;1.33;;
1262;SDS011;62267;50.112;8.704;2023-01-09T05:44:30;1.30;;;1.20;;
1262;SDS011;62267;50.112;8.704;2023-01-09T05:46:57;1.50;;;1.40;;
1262;SDS011;62267;50.112;8.704;2023-01-09T05:49:28;1.50;;;1.40;;
1262;SDS011;62267;50.112;8.704;2023-01-09T05:51:55;1.30;;;1.20;;
1262;SDS011;62267;50.112;8.704;2023-01-09T05:54:22;1.90;;;1.50;;
1262;SDS011;62267;50.112;8.704;2023-01-09T05:56:49;1.30;;;1.20;;
1262;SDS011;62267;50.112;8.704;2023-01-09T05:59:16;1.50;;;1.40;;
1262;SDS011;62267;50.112;8.704;2023-01-09T06:01:43;1.40;;;1.30;;
1262;SDS011;62267;50.112;8.704;2023-01-09T06:04:11;1.20;;;1.20;;
1262;SDS011;62267;50.112;8.704;2023-01-09T06:06:38;1.40;;;1.40;;
1262;SDS011;62267;50.112;8.704;2023-01-09T06:09:06;1.60;;;1.50;;
1262;SDS011;62267;50.112;8.704;2023-01-09T06:11:33;1.70;;;1.60;;
1262;SDS011;62267;50.112;8.704;2023-01-09T06:14:01;1.47;;;1.37;;
1262;SDS011;62267;50.112;8.704;2023-01-09T06:16:28;1.90;;;1.70;;
1262;SDS011;62267;50.112;8.704;2023-01-09T06:18:55;1.60;;;1.50;;
1262;SDS011;62267;50.112;8.704;2023-01-09T06:21:22;1.77;;;1.67;;
1262;SDS011;62267;50.112;8.704;2023-01-09T06:23:49;1.50;;;1.40;;
1262;SDS011;62267;50.112;8.704;2023-01-09T06:26:17;1.77;;;1.67;;
1262;SDS011;62267;50.112;8.704;2023-01-09T06:28:44;1.77;;;1.67;;
1262;SDS011;62267;50.112;8.704;2023-01-09T06:31:11;2.80;;;1.57;;
1262;SDS011;62267;50.112;8.704;2023-01-09T06:33:38;1.53;;;1.40;;
1262;SDS011;62267;50.112;8.704;2023-01-09T06:36:06;2.37;;;1.50;;
1262;SDS011;62267;50.112;8.704;2023-01-09T06:38:33;2.10;;;1.40;;
1262;SDS011;62267;50.112;8.704;2023-01-09T06:41:00;1.87;;;1.30;;
1262;SDS011;62267;50.112;8.704;2023-01-09T06:43:27;1.43;;;1.33;;
1262;SDS011;62267;50.112;8.704;2023-01-09T06:45:54;3.63;;;3.20;;
1262;SDS011;62267;50.112;8.704;2023-01-09T06:48:22;2.37;;;1.50;;
1262;SDS011;62267;50.112;8.704;2023-01-09T06:50:52;1.70;;;1.60;;
1262;SDS011;62267;50.112;8.704;2023-01-09T06:53:20;2.00;;;1.90;;
1262;SDS011;62267;50.112;8.704;2023-01-09T06:55:47;2.10;;;1.90;;
1262;SDS011;62267;50.112;8.704;2023-01-09T06:58:14;2.13;;;1.93;;
1262;SDS011;62267;50.112;8.704;2023-01-09T07:00:41;1.80;;;1.70;;
1262;SDS011;62267;50.112;8.704;2023-01-09T07:03:08;2.40;;;1.70;;
1262;SDS011;62267;50.112;8.704;2023-01-09T07:05:37;2.20;;;1.70;;
1262;SDS011;62267;50.112;8.704;2023-01-09T07:08:05;1.90;;;1.60;;
1262;SDS011;62267;50.112;8.704;2023-01-09T07:10:32;2.10;;;1.90;;
1262;SDS011;62267;50.112;8.704;2023-01-09T07:13:00;2.37;;;2.10;;
1262;SDS011;62267;50.112;8.704;2023-01-09T07:15:27;2.53;;;2.13;;
1262;SDS011;62267;50.112;8.704;2023-01-09T07:17:55;2.43;;;2.23;;
1262;SDS011;62267;50.112;8.704;2023-01-09T07:20:22;2.90;;;2.03;;
1262;SDS011;62267;50.112;8.704;2023-01-09T07:22:49;2.40;;;2.20;;
1262;SDS011;62267;50.112;8.704;2023-01-09T07:25:16;2.47;;;1.90;;
1262;SDS011;62267;50.112;8.704;2023-01-09T07:27:44;2.40;;;2.10;;
1262;SDS011;62267;50.112;8.704;2023-01-09T07:30:11;3.20;;;2.47;;
1262;SDS011;62267;50.112;8.704;2023-01-09T07:32:38;2.20;;;2.10;;
1262;SDS011;62267;50.112;8.704;2023-01-09T07:35:07;2.10;;;2.00;;
1262;SDS011;62267;50.112;8.704;2023-01-09T07:37:34;2.50;;;1.87;;
1262;SDS011;62267;50.112;8.704;2023-01-09T07:40:01;3.80;;;1.80;;
1262;SDS011;62267;50.112;8.704;2023-01-09T07:42:29;2.30;;;2.00;;
1262;SDS011;62267;50.112;8.704;2023-01-09T07:44:56;2.13;;;1.90;;
1262;SDS011;62267;50.112;8.704;2023-01-09T07:47:23;5.63;;;2.17;;
1262;SDS011;62267;50.112;8.704;2023-01-09T07:49:50;3.37;;;2.30;;
1262;SDS011;62267;50.112;8.704;2023-01-09T07:52:17;2.43;;;2.27;;
1262;SDS011;62267;50.112;8.704;2023-01-09T07:54:44;2.00;;;1.80;;
1262;SDS011;62267;50.112;8.704;2023-01-09T07:57:12;2.00;;;1.83;;
1262;SDS011;62267;50.112;8.704;2023-01-09T07:59:39;1.73;;;1.63;;
1262;SDS011;62267;50.112;8.704;2023-01-09T08:02:07;2.57;;;2.00;;
1262;SDS011;62267;50.112;8.704;2023-01-09T08:04:34;5.23;;;2.10;;
1262;SDS011;62267;50.112;8.704;2023-01-09T08:07:02;4.70;;;1.67;;
1262;SDS011;62267;50.112;8.704;2023-01-09T08:09:29;4.13;;;1.70;;
1262;SDS011;62267;50.112;8.704;2023-01-09T08:11:56;2.20;;;1.70;;
1262;SDS011;62267;50.112;8.704;2023-01-09T08:14:23;2.27;;;2.07;;
1262;SDS011;62267;50.112;8.704;2023-01-09T08:16:50;2.70;;;1.60;;
1262;SDS011;62267;50.112;8.704;2023-01-09T08:19:18;7.60;;;2.10;;
1262;SDS011;62267;50.112;8.704;2023-01-09T08:21:45;1.60;;;1.50;;
1262;SDS011;62267;50.112;8.704;2023-01-09T08:24:12;5.03;;;1.80;;
1262;SDS011;62267;50.112;8.704;2023-01-09T08:26:39;4.20;;;2.00;;
1262;SDS011;62267;50.112;8.704;2023-01-09T08:29:06;2.83;;;1.70;;
1262;SDS011;62267;50.112;8.704;2023-01-09T08:31:34;2.80;;;2.40;;
1262;SDS011;62267;50.112;8.704;2023-01-09T08:34:01;2.20;;;2.00;;
1262;SDS011;62267;50.112;8.704;2023-01-09T08:36:28;3.00;;;2.17;;
1262;SDS011;62267;50.112;8.704;2023-01-09T08:38:55;2.47;;;1.97;;
1262;SDS011;62267;50.112;8.704;2023-01-09T08:41:23;1.70;;;1.60;;
1262;SDS011;62267;50.112;8.704;2023-01-09T08:44:09;3.00;;;1.90;;
1262;SDS011;62267;50.112;8.704;2023-01-09T08:46:54;4.93;;;2.00;;
1262;SDS011;62267;50.112;8.704;2023-01-09T08:49:36;2.53;;;1.90;;
1262;SDS011;62267;50.112;8.704;2023-01-09T08:52:05;3.07;;;1.80;;
1262;SDS011;62267;50.112;8.704;2023-01-09T08:54:33;3.93;;;1.93;;
1262;SDS011;62267;50.112;8.704;2023-01-09T08:57:04;2.70;;;1.80;;
1262;SDS011;62267;50.112;8.704;2023-01-09T08:59:31;4.70;;;2.40;;
1262;SDS011;62267;50.112;8.704;2023-01-09T09:01:58;2.63;;;2.07;;
1262;SDS011;62267;50.112;8.704;2023-01-09T09:04:26;2.27;;;1.90;;
1262;SDS011;62267;50.112;8.704;2023-01-09T09:06:53;1.93;;;1.83;;
1262;SDS011;62267;50.112;8.704;2023-01-09T09:09:20;2.90;;;1.67;;
1262;SDS011;62267;50.112;8.704;2023-01-09T09:11:47;2.27;;;2.07;;
1262;SDS011;62267;50.112;8.704;2023-01-09T09:14:14;4.70;;;2.20;;
1262;SDS011;62267;50.112;8.704;2023-01-09T09:17:00;3.90;;;2.03;;
1262;SDS011;62267;50.112;8.704;2023-01-09T09:19:27;1.77;;;1.40;;
1262;SDS011;62267;50.112;8.704;2023-01-09T09:21:54;1.67;;;1.57;;
1262;SDS011;62267;50.112;8.704;2023-01-09T09:24:22;3.67;;;1.50;;
1262;SDS011;62267;50.112;8.704;2023-01-09T09:26:49;1.60;;;1.50;;
1262;SDS011;62267;50.112;8.704;2023-01-09T09:29:16;1.60;;;1.50;;
1262;SDS011;62267;50.112;8.704;2023-01-09T09:31:43;2.17;;;1.80;;
1262;SDS011;62267;50.112;8.704;2023-01-09T09:34:10;2.40;;;2.00;;
1262;SDS011;62267;50.112;8.704;2023-01-09T09:36:39;1.53;;;1.43;;
1262;SDS011;62267;50.112;8.704;2023-01-09T09:39:07;2.40;;;1.73;;
1262;SDS011;62267;50.112;8.704;2023-01-09T09:41:39;1.37;;;1.27;;
1262;SDS011;62267;50.112;8.704;2023-01-09T09:49:55;1.50;;;1.40;;
1262;SDS011;62267;50.112;8.704;2023-01-09T09:52:34;2.40;;;1.70;;
1262;SDS011;62267;50.112;8.704;2023-01-09T09:55:11;1.80;;;1.70;;
1262;SDS011;62267;50.112;8.704;2023-01-09T09:57:41;1.60;;;1.50;;
1262;SDS011;62267;50.112;8.704;2023-01-09T10:00:13;1.90;;;1.80;;
1262;SDS011;62267;50.112;8.704;2023-01-09T10:02:43;3.87;;;1.70;;
1262;SDS011;62267;50.112;8.704;2023-01-09T10:08:15;1.40;;;1.30;;
1262;SDS011;62267;50.112;8.704;2023-01-09T10:10:48;1.90;;;1.50;;
1262;SDS011;62267;50.112;8.704;2023-01-09T10:13:17;1.50;;;1.40;;
1262;SDS011;62267;50.112;8.704;2023-01-09T10:16:15;1.60;;;1.50;;
1262;SDS011;62267;50.112;8.704;2023-01-09T10:21:39;7.23;;;1.90;;
1262;SDS011;62267;50.112;8.704;2023-01-09T10:24:24;3.33;;;1.70;;
1262;SDS011;62267;50.112;8.704;2023-01-09T10:26:54;3.27;;;2.20;;
1262;SDS011;62267;50.112;8.704;2023-01-09T10:37:28;2.07;;;1.70;;
1262;SDS011;62267;50.112;8.704;2023-01-09T10:40:06;3.00;;;1.70;;
1262;SDS011;62267;50.112;8.704;2023-01-09T10:42:49;2.20;;;2.00;;
1262;SDS011;62267;50.112;8.704;2023-01-09T10:45:20;2.07;;;1.73;;
1262;SDS011;62267;50.112;8.704;2023-01-09T10:47:48;2.17;;;2.00;;
1262;SDS011;62267;50.112;8.704;2023-01-09T10:50:17;2.27;;;1.67;;
1262;SDS011;62267;50.112;8.704;2023-01-09T10:52:50;4.63;;;1.90;;
1262;SDS011;62267;50.112;8.704;2023-01-09T10:55:23;4.20;;;1.70;;
1262;SDS011;62267;50.112;8.704;2023-01-09T10:57:53;4.30;;;1.73;;
1262;SDS011;62267;50.112;8.704;2023-01-09T11:00:23;2.17;;;1.77;;
1262;SDS011;62267;50.112;8.704;2023-01-09T11:02:51;4.63;;;1.93;;
1262;SDS011;62267;50.112;8.704;2023-01-09T11:05:28;4.63;;;1.90;;
1262;SDS011;62267;50.112;8.704;2023-01-09T11:08:00;1.80;;;1.70;;
1262;SDS011;62267;50.112;8.704;2023-01-09T11:10:48;10.00;;;2.43;;
1262;SDS011;62267;50.112;8.704;2023-01-09T11:13:26;2.80;;;1.80;;
1262;SDS011;62267;50.112;8.704;2023-01-09T11:16:16;1.93;;;1.77;;
1262;SDS011;62267;50.112;8.704;2023-01-09T11:18:50;3.33;;;2.27;;
1262;SDS011;62267;50.112;8.704;2023-01-09T11:21:37;2.40;;;1.83;;
1262;SDS011;62267;50.112;8.704;2023-01-09T11:26:49;4.50;;;3.60;;
1262;SDS011;62267;50.112;8.704;2023-01-09T11:29:20;1.83;;;1.73;;
1262;SDS011;62267;50.112;8.704;2023-01-09T11:31:53;2.70;;;1.87;;
1262;SDS011;62267;50.112;8.704;2023-01-09T11:34:23;2.20;;;1.60;;
1262;SDS011;62267;50.112;8.704;2023-01-09T11:36:53;1.80;;;1.70;;
1262;SDS011;62267;50.112;8.704;2023-01-09T11:39:29;3.67;;;1.80;;
1262;SDS011;62267;50.112;8.704;2023-01-09T11:41:58;3.67;;;1.83;;
1262;SDS011;62267;50.112;8.704;2023-01-09T11:44:26;2.00;;;1.73;;
1262;SDS011;62267;50.112;8.704;2023-01-09T11:46:54;1.80;;;1.70;;
1262;SDS011;62267;50.112;8.704;2023-01-09T11:49:23;2.37;;;2.20;;
1262;SDS011;62267;50.112;8.704;2023-01-09T11:52:36;5.30;;;2.20;;
1262;SDS011;62267;50.112;8.704;2023-01-09T11:54:39;1.70;;;1.60;;
1262;SDS011;62267;50.112;8.704;2023-01-09T11:57:10;2.10;;;1.90;;
1262;SDS011;62267;50.112;8.704;2023-01-09T11:59:38;1.90;;;1.80;;
1262;SDS011;62267;50.112;8.704;2023-01-09T12:15:45;2.13;;;1.80;;
1262;SDS011;62267;50.112;8.704;2023-01-09T12:26:16;2.17;;;2.00;;
1262;SDS011;62267;50.112;8.704;2023-01-09T12:31:15;2.20;;;2.10;;
1262;SDS011;62267;50.112;8.704;2023-01-09T12:33:50;2.50;;;1.80;;
1262;SDS011;62267;50.112;8.704;2023-01-09T12:38:47;8.00;;;2.77;;
1262;SDS011;62267;50.112;8.704;2023-01-09T12:43:58;3.27;;;2.97;;
1262;SDS011;62267;50.112;8.704;2023-01-09T12:46:32;3.90;;;2.00;;
1262;SDS011;62267;50.112;8.704;2023-01-09T12:51:36;2.37;;;2.17;;
1262;SDS011;62267;50.112;8.704;2023-01-09T12:54:15;2.27;;;1.90;;
1262;SDS011;62267;50.112;8.704;2023-01-09T12:56:50;1.93;;;1.80;;
1262;SDS011;62267;50.112;8.704;2023-01-09T13:02:31;2.70;;;2.00;;
1262;SDS011;62267;50.112;8.704;2023-01-09T13:05:02;1.90;;;1.80;;
1262;SDS011;62267;50.112;8.704;2023-01-09T13:07:33;2.90;;;2.23;;
1262;SDS011;62267;50.112;8.704;2023-01-09T13:10:05;2.57;;;2.30;;
1262;SDS011;62267;50.112;8.704;2023-01-09T13:12:35;2.70;;;2.07;;
1262;SDS011;62267;50.112;8.704;2023-01-09T13:15:46;1.70;;;1.60;;
1262;SDS011;62267;50.112;8.704;2023-01-09T13:17:59;2.67;;;2.10;;
1262;SDS011;62267;50.112;8.704;2023-01-09T13:22:56;1.80;;;1.70;;
1262;SDS011;62267;50.112;8.704;2023-01-09T13:27:59;2.20;;;2.00;;
1262;SDS011;62267;50.112;8.704;2023-01-09T13:30:50;2.57;;;2.13;;
1262;SDS011;62267;50.112;8.704;2023-01-09T13:33:27;3.47;;;1.80;;
1262;SDS011;62267;50.112;8.704;2023-01-09T13:35:58;4.50;;;2.00;;
1262;SDS011;62267;50.112;8.704;2023-01-09T13:38:28;3.83;;;2.87;;
1262;SDS011;62267;50.112;8.704;2023-01-09T13:43:54;2.37;;;1.73;;
1262;SDS011;62267;50.112;8.704;2023-01-09T13:46:22;3.90;;;1.90;;
1262;SDS011;62267;50.112;8.704;2023-01-09T13:48:49;1.90;;;1.80;;
1262;SDS011;62267;50.112;8.704;2023-01-09T13:51:34;3.00;;;1.93;;
1262;SDS011;62267;50.112;8.704;2023-01-09T13:54:02;2.03;;;1.90;;
1262;SDS011;62267;50.112;8.704;2023-01-09T13:56:29;3.53;;;2.00;;
1262;SDS011;62267;50.112;8.704;2023-01-09T13:58:57;1.90;;;1.80;;
1262;SDS011;62267;50.112;8.704;2023-01-09T14:06:35;1.53;;;1.40;;
1262;SDS011;62267;50.112;8.704;2023-01-09T14:09:21;2.50;;;1.33;;
1262;SDS011;62267;50.112;8.704;2023-01-09T14:11:53;1.40;;;1.30;;
1262;SDS011;62267;50.112;8.704;2023-01-09T14:14:28;3.90;;;1.47;;
1262;SDS011;62267;50.112;8.704;2023-01-09T14:16:58;1.63;;;1.50;;
1262;SDS011;62267;50.112;8.704;2023-01-09T14:19:35;1.80;;;1.70;;
1262;SDS011;62267;50.112;8.704;2023-01-09T14:22:03;1.50;;;1.40;;
1262;SDS011;62267;50.112;8.704;2023-01-09T14:24:38;1.80;;;1.70;;
1262;SDS011;62267;50.112;8.704;2023-01-09T14:27:08;1.87;;;1.77;;
1262;SDS011;62267;50.112;8.704;2023-01-09T14:30:14;1.73;;;1.63;;
1262;SDS011;62267;50.112;8.704;2023-01-09T14:32:41;2.13;;;1.40;;
1262;SDS011;62267;50.112;8.704;2023-01-09T14:35:11;1.80;;;1.70;;
1262;SDS011;62267;50.112;8.704;2023-01-09T14:37:39;1.53;;;1.40;;
1262;SDS011;62267;50.112;8.704;2023-01-09T14:40:15;2.80;;;1.60;;
1262;SDS011;62267;50.112;8.704;2023-01-09T14:42:45;1.80;;;1.70;;
1262;SDS011;62267;50.112;8.704;2023-01-09T14:45:22;1.43;;;1.33;;
1262;SDS011;62267;50.112;8.704;2023-01-09T14:47:52;1.47;;;1.37;;
1262;SDS011;62267;50.112;8.704;2023-01-09T14:50:26;3.20;;;1.63;;
1262;SDS011;62267;50.112;8.704;2023-01-09T14:52:58;2.83;;;1.57;;
1262;SDS011;62267;50.112;8.704;2023-01-09T14:58:19;2.60;;;1.50;;
1262;SDS011;62267;50.112;8.704;2023-01-09T15:01:11;2.03;;;1.50;;
1262;SDS011;62267;50.112;8.704;2023-01-09T15:03:38;2.40;;;1.70;;
1262;SDS011;62267;50.112;8.704;2023-01-09T15:06:09;1.50;;;1.40;;
1262;SDS011;62267;50.112;8.704;2023-01-09T15:08:38;3.03;;;1.70;;
1262;SDS011;62267;50.112;8.704;2023-01-09T15:11:05;1.50;;;1.40;;
1262;SDS011;62267;50.112;8.704;2023-01-09T15:13:39;1.60;;;1.50;;
1262;SDS011;62267;50.112;8.704;2023-01-09T15:16:13;1.70;;;1.60;;
1262;SDS011;62267;50.112;8.704;2023-01-09T15:18:42;2.17;;;1.40;;
1262;SDS011;62267;50.112;8.704;2023-01-09T15:21:20;2.00;;;1.70;;
1262;SDS011;62267;50.112;8.704;2023-01-09T15:23:49;1.97;;;1.70;;
1262;SDS011;62267;50.112;8.704;2023-01-09T15:26:24;1.63;;;1.53;;
1262;SDS011;62267;50.112;8.704;2023-01-09T15:28:58;4.70;;;2.23;;
1262;SDS011;62267;50.112;8.704;2023-01-09T15:31:26;1.93;;;1.70;;
1262;SDS011;62267;50.112;8.704;2023-01-09T15:33:54;2.00;;;1.60;;
1262;SDS011;62267;50.112;8.704;2023-01-09T15:36:22;1.47;;;1.30;;
1262;SDS011;62267;50.112;8.704;2023-01-09T15:38:50;1.73;;;1.50;;
1262;SDS011;62267;50.112;8.704;2023-01-09T15:41:22;1.70;;;1.60;;
1262;SDS011;62267;50.112;8.704;2023-01-09T15:44:21;1.73;;;1.63;;
1262;SDS011;62267;50.112;8.704;2023-01-09T15:46:54;1.70;;;1.60;;
1262;SDS011;62267;50.112;8.704;2023-01-09T15:49:22;2.40;;;1.60;;
1262;SDS011;62267;50.112;8.704;2023-01-09T15:51:50;1.50;;;1.30;;
1262;SDS011;62267;50.112;8.704;2023-01-09T15:54:27;1.83;;;1.50;;
1262;SDS011;62267;50.112;8.704;2023-01-09T15:59:41;4.83;;;2.00;;
1262;SDS011;62267;50.112;8.704;2023-01-09T16:02:08;3.77;;;1.80;;
1262;SDS011;62267;50.112;8.704;2023-01-09T16:04:57;1.60;;;1.50;;
1262;SDS011;62267;50.112;8.704;2023-01-09T16:07:24;2.70;;;1.57;;
1262;SDS011;62267;50.112;8.704;2023-01-09T16:09:51;1.93;;;1.40;;
1262;SDS011;62267;50.112;8.704;2023-01-09T16:12:22;2.33;;;1.57;;
1262;SDS011;62267;50.112;8.704;2023-01-09T16:14:54;3.00;;;1.97;;
1262;SDS011;62267;50.112;8.704;2023-01-09T16:17:22;1.40;;;1.30;;
1262;SDS011;62267;50.112;8.704;2023-01-09T16:19:55;1.97;;;1.40;;
1262;SDS011;62267;50.112;8.704;2023-01-09T16:22:27;1.37;;;1.27;;
1262;SDS011;62267;50.112;8.704;2023-01-09T16:24:58;1.70;;;1.60;;
1262;SDS011;62267;50.112;8.704;2023-01-09T16:27:27;2.57;;;1.60;;
1262;SDS011;62267;50.112;8.704;2023-01-09T16:29:56;3.00;;;1.60;;
1262;SDS011;62267;50.112;8.704;2023-01-09T16:32:31;1.73;;;1.63;;
1262;SDS011;62267;50.112;8.704;2023-01-09T16:35:01;1.50;;;1.40;;
1262;SDS011;62267;50.112;8.704;2023-01-09T16:37:31;1.53;;;1.20;;
1262;SDS011;62267;50.112;8.704;2023-01-09T16:42:48;1.40;;;1.30;;
1262;SDS011;62267;50.112;8.704;2023-01-09T16:48:01;1.60;;;1.50;;
1262;SDS011;62267;50.112;8.704;2023-01-09T16:50:30;1.50;;;1.40;;
1262;SDS011;62267;50.112;8.704;2023-01-09T16:52:57;1.77;;;1.63;;
1262;SDS011;62267;50.112;8.704;2023-01-09T16:55:25;3.10;;;1.70;;
1262;SDS011;62267;50.112;8.704;2023-01-09T16:57:53;2.00;;;1.60;;
1262;SDS011;62267;50.112;8.704;2023-01-09T17:00:20;3.63;;;1.87;;
1262;SDS011;62267;50.112;8.704;2023-01-09T17:02:48;3.27;;;1.70;;
1262;SDS011;62267;50.112;8.704;2023-01-09T17:05:15;2.60;;;1.97;;